createdAt,value
2022-09-16T00:00:53.673Z,1002.39
2022-09-16T00:01:54.548Z,1002.41
2022-09-16T00:02:53.600Z,1002.42
2022-09-16T00:03:54.599Z,1002.49
2022-09-16T00:04:54.499Z,1002.34
2022-09-16T00:05:54.409Z,1002.34
2022-09-16T00:06:53.560Z,1002.38
2022-09-16T00:07:53.985Z,1002.34
2022-09-16T00:08:54.413Z,1002.33
2022-09-16T00:09:53.552Z,1002.31
2022-09-16T00:10:53.511Z,1002.35
2022-09-16T00:11:53.512Z,1002.34
2022-09-16T00:12:54.253Z,1002.30
2022-09-16T00:13:53.442Z,1002.29
2022-09-16T00:14:54.311Z,1002.34
2022-09-16T00:15:54.277Z,1002.35
2022-09-16T00:16:53.421Z,1002.34
2022-09-16T00:17:53.693Z,1002.32
2022-09-16T00:18:53.373Z,1002.34
2022-09-16T00:19:53.425Z,1002.26
2022-09-16T00:20:53.493Z,1002.12
2022-09-16T00:21:54.153Z,1002.20
2022-09-16T00:22:54.315Z,1002.25
2022-09-16T00:23:54.251Z,1002.26
2022-09-16T00:24:53.296Z,1002.29
2022-09-16T00:25:53.446Z,1002.36
2022-09-16T00:26:54.184Z,1002.41
2022-09-16T00:27:53.280Z,1002.27
2022-09-16T00:28:53.234Z,1002.35
2022-09-16T00:29:53.213Z,1002.33
2022-09-16T00:30:53.196Z,1002.41
2022-09-16T00:31:53.285Z,1002.42
2022-09-16T00:32:54.115Z,1002.39
2022-09-16T00:33:54.025Z,1002.38
2022-09-16T00:34:54.592Z,1002.36
2022-09-16T00:35:54.088Z,1002.29
2022-09-16T00:36:53.988Z,1002.32
2022-09-16T00:37:53.277Z,1002.30
2022-09-16T00:38:54.198Z,1002.31
2022-09-16T00:39:53.981Z,1002.32
2022-09-16T00:40:53.866Z,1002.36
2022-09-16T00:41:54.023Z,1002.31
2022-09-16T00:42:53.021Z,1002.29
2022-09-16T00:43:53.829Z,1002.35
2022-09-16T00:44:53.988Z,1002.38
2022-09-16T00:45:52.989Z,1002.35
2022-09-16T00:46:53.005Z,1002.36
2022-09-16T00:47:53.228Z,1002.34
2022-09-16T00:48:53.867Z,1002.33
2022-09-16T00:49:53.259Z,1002.42
2022-09-16T00:50:52.969Z,1002.45
2022-09-16T00:51:53.829Z,1002.43
2022-09-16T00:52:52.912Z,1002.44
2022-09-16T00:53:52.909Z,1002.41
2022-09-16T00:54:53.797Z,1002.48
2022-09-16T00:55:53.701Z,1002.45
2022-09-16T00:56:54.289Z,1002.47
2022-09-16T00:57:53.770Z,1002.44
2022-09-16T00:58:53.072Z,1002.41
2022-09-16T00:59:53.583Z,1002.48
2022-09-16T01:00:53.773Z,1002.47
2022-09-16T01:01:53.243Z,1002.46
2022-09-16T01:02:53.250Z,1002.46
2022-09-16T01:03:53.010Z,1002.44
2022-09-16T01:04:53.292Z,1002.42
2022-09-16T01:05:53.253Z,1002.42
2022-09-16T01:06:53.322Z,1002.41
2022-09-16T01:07:54.108Z,1002.43
2022-09-16T01:08:53.363Z,1002.47
2022-09-16T01:09:53.642Z,1002.41
2022-09-16T01:10:53.543Z,1002.40
2022-09-16T01:11:53.445Z,1002.43
2022-09-16T01:12:52.633Z,1002.31
2022-09-16T01:13:53.316Z,1002.28
2022-09-16T01:14:53.266Z,1002.34
2022-09-16T01:15:52.613Z,1002.34
2022-09-16T01:16:53.475Z,1002.32
2022-09-16T01:17:52.556Z,1002.36
2022-09-16T01:18:52.516Z,1002.33
2022-09-16T01:19:52.505Z,1002.34
2022-09-16T01:20:52.471Z,1002.41
2022-09-16T01:21:52.445Z,1002.37
2022-09-16T01:22:52.488Z,1002.30
2022-09-16T01:23:52.516Z,1002.28
2022-09-16T01:24:52.447Z,1002.34
2022-09-16T01:25:53.385Z,1002.27
2022-09-16T01:26:52.523Z,1002.29
2022-09-16T01:27:52.437Z,1002.32
2022-09-16T01:28:52.507Z,1002.35
2022-09-16T01:29:53.256Z,1002.35
2022-09-16T01:30:52.327Z,1002.34
2022-09-16T01:31:53.316Z,1002.35
2022-09-16T01:32:52.310Z,1002.30
2022-09-16T01:33:52.336Z,1002.32
2022-09-16T01:34:52.307Z,1002.37
2022-09-16T01:35:53.190Z,1002.42
2022-09-16T01:36:52.238Z,1002.40
2022-09-16T01:37:52.526Z,1002.54
2022-09-16T01:38:52.278Z,1002.44
2022-09-16T01:39:53.089Z,1002.42
2022-09-16T01:40:52.180Z,1002.43
2022-09-16T01:41:52.175Z,1002.49
2022-09-16T01:42:52.159Z,1002.37
2022-09-16T01:43:52.139Z,1002.32
2022-09-16T01:44:53.091Z,1002.37
2022-09-16T01:45:52.130Z,1002.43
2022-09-16T01:46:52.934Z,1002.50
2022-09-16T01:47:52.074Z,1002.43
2022-09-16T01:48:53.834Z,1002.46
2022-09-16T01:49:52.871Z,1002.45
2022-09-16T01:50:52.046Z,1002.44
2022-09-16T01:51:52.032Z,1002.41
2022-09-16T01:52:52.233Z,1002.42
2022-09-16T01:53:52.022Z,1002.45
2022-09-16T01:54:52.291Z,1002.39
2022-09-16T01:55:52.802Z,1002.38
2022-09-16T01:56:53.399Z,1002.40
2022-09-16T01:57:52.874Z,1002.38
2022-09-16T01:58:51.951Z,1002.37
2022-09-16T01:59:52.683Z,1002.34
2022-09-16T02:00:52.840Z,1002.38
2022-09-16T02:01:52.003Z,1002.30
2022-09-16T02:02:51.922Z,1002.29
2022-09-16T02:03:52.183Z,1002.28
2022-09-16T02:04:51.835Z,1002.28
2022-09-16T02:05:52.615Z,1002.33
2022-09-16T02:06:51.833Z,1002.29
2022-09-16T02:07:52.677Z,1002.30
2022-09-16T02:08:51.767Z,1002.33
2022-09-16T02:09:52.745Z,1002.41
2022-09-16T02:10:51.737Z,1002.29
2022-09-16T02:11:51.755Z,1002.28
2022-09-16T02:12:51.694Z,1002.21
2022-09-16T02:13:52.615Z,1002.12
2022-09-16T02:14:51.708Z,1002.18
2022-09-16T02:15:52.706Z,1002.20
2022-09-16T02:16:51.666Z,1002.16
2022-09-16T02:17:52.485Z,1002.12
2022-09-16T02:18:52.399Z,1002.12
2022-09-16T02:19:52.548Z,1002.10
2022-09-16T02:20:52.237Z,1002.12
2022-09-16T02:21:52.356Z,1002.17
2022-09-16T02:22:51.573Z,1002.18
2022-09-16T02:23:52.247Z,1002.20
2022-09-16T02:24:52.217Z,1002.22
2022-09-16T02:25:52.489Z,1002.20
2022-09-16T02:26:52.269Z,1002.14
2022-09-16T02:27:51.529Z,1002.21
2022-09-16T02:28:51.509Z,1002.12
2022-09-16T02:29:51.549Z,1002.18
2022-09-16T02:30:52.332Z,1002.12
2022-09-16T02:31:55.490Z,1002.05
2022-09-16T02:32:52.328Z,1002.02
2022-09-16T02:33:52.229Z,1001.99
2022-09-16T02:34:52.399Z,1002.08
2022-09-16T02:35:52.303Z,1002.08
2022-09-16T02:36:52.201Z,1002.05
2022-09-16T02:37:52.359Z,1002.12
2022-09-16T02:38:52.312Z,1002.02
2022-09-16T02:39:51.345Z,1002.08
2022-09-16T02:40:52.073Z,1002.12
2022-09-16T02:41:52.242Z,1002.08
2022-09-16T02:42:52.130Z,1002.03
2022-09-16T02:43:51.281Z,1001.85
2022-09-16T02:44:52.203Z,1001.86
2022-09-16T02:45:51.271Z,1001.83
2022-09-16T02:46:52.002Z,1001.77
2022-09-16T02:47:51.212Z,1001.78
2022-09-16T02:48:52.074Z,1001.81
2022-09-16T02:49:51.201Z,1001.82
2022-09-16T02:50:52.602Z,1001.86
2022-09-16T02:51:52.034Z,1001.99
2022-09-16T02:52:51.948Z,1002.11
2022-09-16T02:53:51.134Z,1002.14
2022-09-16T02:54:52.033Z,1002.15
2022-09-16T02:55:51.095Z,1002.22
2022-09-16T02:56:52.071Z,1002.23
2022-09-16T02:57:51.973Z,1002.24
2022-09-16T02:58:51.060Z,1002.17
2022-09-16T02:59:52.037Z,1002.13
2022-09-16T03:00:51.945Z,1002.04
2022-09-16T03:01:52.608Z,1002.07
2022-09-16T03:02:51.781Z,1002.09
2022-09-16T03:03:51.907Z,1002.10
2022-09-16T03:04:50.986Z,1002.13
2022-09-16T03:05:51.724Z,1002.16
2022-09-16T03:06:51.874Z,1002.12
2022-09-16T03:07:51.785Z,1002.08
2022-09-16T03:08:50.910Z,1002.02
2022-09-16T03:09:50.926Z,1002.00
2022-09-16T03:10:50.877Z,1001.87
2022-09-16T03:11:52.317Z,1001.82
2022-09-16T03:12:50.877Z,1001.79
2022-09-16T03:13:50.857Z,1001.67
2022-09-16T03:14:50.808Z,1001.71
2022-09-16T03:15:51.831Z,1001.87
2022-09-16T03:16:50.827Z,1001.98
2022-09-16T03:17:50.838Z,1002.06
2022-09-16T03:18:50.809Z,1002.09
2022-09-16T03:19:50.747Z,1002.03
2022-09-16T03:20:50.729Z,1002.07
2022-09-16T03:21:51.719Z,1002.08
2022-09-16T03:22:52.168Z,1002.11
2022-09-16T03:23:50.818Z,1002.06
2022-09-16T03:24:50.784Z,1002.06
2022-09-16T03:25:50.837Z,1001.99
2022-09-16T03:26:50.810Z,1001.99
2022-09-16T03:27:50.788Z,1002.02
2022-09-16T03:28:50.841Z,1001.98
2022-09-16T03:29:51.461Z,1001.95
2022-09-16T03:30:50.672Z,1001.93
2022-09-16T03:31:50.641Z,1001.94
2022-09-16T03:32:50.611Z,1001.84
2022-09-16T03:33:50.673Z,1001.91
2022-09-16T03:34:50.590Z,1001.98
2022-09-16T03:35:51.400Z,1001.94
2022-09-16T03:36:50.501Z,1001.93
2022-09-16T03:37:50.555Z,1001.92
2022-09-16T03:38:50.483Z,1002.01
2022-09-16T03:39:50.520Z,1002.08
2022-09-16T03:40:50.471Z,1002.11
2022-09-16T03:41:50.442Z,1002.06
2022-09-16T03:42:51.233Z,1002.09
2022-09-16T03:43:50.422Z,1002.08
2022-09-16T03:44:50.425Z,1002.11
2022-09-16T03:45:50.405Z,1002.09
2022-09-16T03:46:50.364Z,1002.16
2022-09-16T03:47:51.272Z,1002.18
2022-09-16T03:48:51.174Z,1002.18
2022-09-16T03:49:51.085Z,1002.18
2022-09-16T03:50:50.322Z,1002.17
2022-09-16T03:51:51.150Z,1002.16
2022-09-16T03:52:50.292Z,1002.08
2022-09-16T03:53:50.273Z,1002.13
2022-09-16T03:54:50.262Z,1002.12
2022-09-16T03:55:51.015Z,1002.09
2022-09-16T03:56:50.243Z,1002.06
2022-09-16T03:57:50.206Z,1002.05
2022-09-16T03:58:50.196Z,1002.01
2022-09-16T03:59:50.374Z,1002.14
2022-09-16T04:00:50.188Z,1002.05
2022-09-16T04:01:50.308Z,1002.06
2022-09-16T04:02:50.264Z,1002.05
2022-09-16T04:03:50.137Z,1001.97
2022-09-16T04:04:50.137Z,1001.95
2022-09-16T04:05:50.098Z,1001.97
2022-09-16T04:06:51.564Z,1001.94
2022-09-16T04:07:50.890Z,1001.87
2022-09-16T04:08:51.055Z,1001.88
2022-09-16T04:09:50.956Z,1001.90
2022-09-16T04:10:50.857Z,1001.89
2022-09-16T04:11:51.448Z,1001.92
2022-09-16T04:12:50.923Z,1001.95
2022-09-16T04:13:50.828Z,1001.98
2022-09-16T04:14:50.728Z,1001.94
2022-09-16T04:15:50.034Z,1001.97
2022-09-16T04:16:50.788Z,1001.93
2022-09-16T04:17:50.049Z,1001.95
2022-09-16T04:18:50.340Z,1001.90
2022-09-16T04:19:50.309Z,1001.95
2022-09-16T04:20:50.373Z,1001.93
2022-09-16T04:21:49.890Z,1001.93
2022-09-16T04:22:50.730Z,1001.89
2022-09-16T04:23:49.874Z,1001.97
2022-09-16T04:24:49.863Z,1001.96
2022-09-16T04:25:50.729Z,1001.92
2022-09-16T04:26:50.000Z,1001.87
2022-09-16T04:27:49.892Z,1001.80
2022-09-16T04:28:51.272Z,1001.69
2022-09-16T04:29:49.793Z,1001.77
2022-09-16T04:30:49.908Z,1001.77
2022-09-16T04:31:49.917Z,1001.75
2022-09-16T04:32:50.316Z,1001.87
2022-09-16T04:33:49.765Z,1001.76
2022-09-16T04:34:50.611Z,1001.83
2022-09-16T04:35:49.764Z,1001.78
2022-09-16T04:36:49.695Z,1001.78
2022-09-16T04:37:49.733Z,1001.79
2022-09-16T04:38:50.465Z,1001.71
2022-09-16T04:39:49.705Z,1001.81
2022-09-16T04:40:50.538Z,1001.82
2022-09-16T04:41:49.594Z,1001.73
2022-09-16T04:42:50.359Z,1001.79
2022-09-16T04:43:50.136Z,1001.80
2022-09-16T04:44:50.205Z,1001.75
2022-09-16T04:45:50.365Z,1001.81
2022-09-16T04:46:49.547Z,1001.78
2022-09-16T04:47:49.584Z,1001.72
2022-09-16T04:48:49.527Z,1001.71
2022-09-16T04:49:49.611Z,1001.70
2022-09-16T04:50:49.507Z,1001.70
2022-09-16T04:51:49.468Z,1001.71
2022-09-16T04:52:50.414Z,1001.63
2022-09-16T04:53:54.747Z,1001.63
2022-09-16T04:54:49.508Z,1001.63
2022-09-16T04:55:49.409Z,1001.50
2022-09-16T04:56:49.490Z,1001.56
2022-09-16T04:57:49.403Z,1001.61
2022-09-16T04:58:49.399Z,1001.61
2022-09-16T04:59:49.515Z,1001.64
2022-09-16T05:00:49.371Z,1001.70
2022-09-16T05:01:49.679Z,1001.66
2022-09-16T05:02:49.323Z,1001.65
2022-09-16T05:03:49.325Z,1001.61
2022-09-16T05:04:50.055Z,1001.64
2022-09-16T05:05:49.240Z,1001.58
2022-09-16T05:06:49.270Z,1001.63
2022-09-16T05:07:49.539Z,1001.60
2022-09-16T05:08:49.292Z,1001.61
2022-09-16T05:09:49.207Z,1001.59
2022-09-16T05:10:49.332Z,1001.61
2022-09-16T05:11:49.391Z,1001.53
2022-09-16T05:12:49.559Z,1001.53
2022-09-16T05:13:49.145Z,1001.55
2022-09-16T05:14:49.114Z,1001.56
2022-09-16T05:15:51.231Z,1001.56
2022-09-16T05:16:49.491Z,1001.64
2022-09-16T05:17:51.578Z,1001.54
2022-09-16T05:18:49.105Z,1001.58
2022-09-16T05:19:57.401Z,1001.61
2022-09-16T05:21:18.683Z,1001.64
2022-09-16T05:22:00.582Z,1001.62
2022-09-16T07:10:41.279Z,1002.08
2022-09-16T07:11:42.504Z,1002.03
2022-09-16T07:12:41.035Z,1002.10
2022-09-16T07:13:40.966Z,1002.11
2022-09-16T07:14:41.009Z,1002.17
2022-09-16T07:16:02.397Z,1002.11
2022-09-16T07:16:42.825Z,1002.15
2022-09-16T07:17:41.011Z,1002.14
2022-09-16T07:18:40.796Z,1002.15
2022-09-16T07:19:41.087Z,1002.11
2022-09-16T07:20:40.801Z,1002.07
2022-09-16T07:21:41.622Z,1002.09
2022-09-16T07:22:40.784Z,1001.99
2022-09-16T07:23:40.884Z,1002.09
2022-09-16T07:24:40.763Z,1002.08
2022-09-16T07:25:41.366Z,1002.03
2022-09-16T07:26:40.764Z,1002.00
2022-09-16T07:27:41.418Z,1001.97
2022-09-16T07:28:41.166Z,1002.08
2022-09-16T07:29:40.757Z,1002.05
2022-09-16T07:30:40.908Z,1002.10
2022-09-16T07:31:41.548Z,1002.07
2022-09-16T07:32:40.659Z,1002.05
2022-09-16T07:33:40.660Z,1002.11
2022-09-16T07:34:40.587Z,1002.06
2022-09-16T07:35:41.415Z,1002.01
2022-09-16T07:36:40.606Z,1002.10
2022-09-16T07:37:42.674Z,1002.13
2022-09-16T07:38:40.537Z,1002.14
2022-09-16T07:39:41.289Z,1002.14
2022-09-16T07:40:40.573Z,1002.06
2022-09-16T07:41:40.487Z,1002.13
2022-09-16T07:42:40.489Z,1002.13
2022-09-16T07:43:40.461Z,1002.11
2022-09-16T07:44:40.571Z,1002.12
2022-09-16T07:45:40.488Z,1002.18
2022-09-16T07:46:40.413Z,1002.13
2022-09-16T07:47:41.287Z,1002.13
2022-09-16T07:48:41.190Z,1002.19
2022-09-16T07:49:40.376Z,1002.11
2022-09-16T07:50:41.256Z,1002.10
2022-09-16T07:51:40.442Z,1002.09
2022-09-16T07:52:40.317Z,1002.08
2022-09-16T07:53:41.225Z,1002.11
2022-09-16T07:54:40.321Z,1002.11
2022-09-16T07:55:40.302Z,1002.09
2022-09-16T07:56:40.266Z,1002.11
2022-09-16T07:57:40.274Z,1002.13
2022-09-16T07:58:41.788Z,1002.13
2022-09-16T07:59:41.168Z,1002.13
2022-09-16T08:00:40.223Z,1002.10
2022-09-16T08:01:43.529Z,1002.12
2022-09-16T08:02:41.173Z,1002.15
2022-09-16T08:03:40.224Z,1002.26
2022-09-16T08:04:40.296Z,1002.13
2022-09-16T08:05:41.108Z,1002.10
2022-09-16T08:06:40.136Z,1002.11
2022-09-16T08:07:40.908Z,1002.09
2022-09-16T08:08:41.064Z,1002.07
2022-09-16T08:09:48.613Z,1002.09
2022-09-16T08:10:41.114Z,1002.12
2022-09-16T08:11:41.035Z,1002.12
2022-09-16T08:12:40.931Z,1002.15
2022-09-16T08:13:40.048Z,1002.12
2022-09-16T08:14:41.003Z,1002.15
2022-09-16T08:15:39.983Z,1002.03
2022-09-16T08:16:40.898Z,1002.08
2022-09-16T08:17:40.029Z,1002.18
2022-09-16T08:18:39.952Z,1002.22
2022-09-16T08:19:39.962Z,1002.19
2022-09-16T08:20:39.921Z,1002.24
2022-09-16T08:21:40.841Z,1002.16
2022-09-16T08:22:40.746Z,1002.21
2022-09-16T08:23:39.874Z,1002.13
2022-09-16T08:24:40.053Z,1002.08
2022-09-16T08:25:40.711Z,1002.06
2022-09-16T08:26:40.642Z,1002.00
2022-09-16T08:27:40.772Z,1002.02
2022-09-16T08:29:04.670Z,1002.02
2022-09-16T08:29:40.811Z,1002.00
2022-09-16T08:30:40.753Z,1002.01
2022-09-16T08:31:39.863Z,1002.10
2022-09-16T08:32:40.312Z,1002.08
2022-09-16T08:33:40.273Z,1002.06
2022-09-16T08:34:39.735Z,1002.06
2022-09-16T08:35:39.735Z,1002.08
2022-09-16T08:36:39.686Z,1002.06
2022-09-16T08:37:40.596Z,1002.14
2022-09-16T08:38:40.488Z,1002.10
2022-09-16T08:39:40.689Z,1002.16
2022-09-16T08:40:39.627Z,1002.11
2022-09-16T08:41:39.757Z,1002.16
2022-09-16T08:42:39.616Z,1002.13
2022-09-16T08:43:40.518Z,1002.06
2022-09-16T08:44:40.426Z,1002.17
2022-09-16T08:45:40.596Z,1002.05
2022-09-16T08:46:40.488Z,1002.05
2022-09-16T08:47:40.393Z,1002.12
2022-09-16T08:48:39.519Z,1002.11
2022-09-16T08:49:43.934Z,1002.10
2022-09-16T08:50:40.568Z,1002.13
2022-09-16T08:51:39.500Z,1002.14
2022-09-16T08:52:39.592Z,1002.12
2022-09-16T08:53:40.329Z,1002.16
2022-09-16T08:54:40.231Z,1002.24
2022-09-16T08:55:39.456Z,1002.18
2022-09-16T08:56:41.500Z,1002.17
2022-09-16T08:57:40.200Z,1002.17
2022-09-16T08:58:39.432Z,1002.08
2022-09-16T08:59:39.448Z,1002.14
2022-09-16T09:00:39.410Z,1002.19
2022-09-16T09:01:39.756Z,1002.14
2022-09-16T09:03:39.345Z,1002.04
2022-09-16T09:04:40.328Z,1002.10
2022-09-16T09:05:40.254Z,1002.10
2022-09-16T09:06:40.764Z,1002.13
2022-09-16T09:07:40.264Z,1002.08
2022-09-16T09:08:39.283Z,1002.03
2022-09-16T09:09:40.066Z,1002.13
2022-09-16T09:10:40.241Z,1002.11
2022-09-16T09:11:39.347Z,1002.13
2022-09-16T09:12:40.107Z,1002.02
2022-09-16T09:13:39.936Z,1002.05
2022-09-16T09:14:40.104Z,1002.05
2022-09-16T09:15:40.005Z,1002.12
2022-09-16T09:16:39.950Z,1002.02
2022-09-16T09:17:48.081Z,1002.07
2022-09-16T09:18:40.997Z,1002.02
2022-09-16T09:19:39.117Z,1002.02
2022-09-16T09:20:39.098Z,1002.03
2022-09-16T09:21:39.938Z,1001.96
2022-09-16T09:22:39.847Z,1002.04
2022-09-16T09:23:39.049Z,1002.02
2022-09-16T09:24:39.048Z,1002.03
2022-09-16T09:25:39.061Z,1001.98
2022-09-16T09:26:39.008Z,1001.99
2022-09-16T09:27:39.088Z,1002.01
2022-09-16T09:28:38.999Z,1002.04
2022-09-16T09:29:39.977Z,1001.95
2022-09-16T09:30:39.861Z,1001.98
2022-09-16T09:31:39.811Z,1002.02
2022-09-16T09:32:48.948Z,1002.04
2022-09-16T09:33:48.004Z,1001.98
2022-09-16T09:34:41.701Z,1001.89
2022-09-16T09:35:38.899Z,1001.91
2022-09-16T09:36:38.864Z,1001.94
2022-09-16T09:37:39.012Z,1001.93
2022-09-16T09:38:38.981Z,1001.89
2022-09-16T09:39:38.873Z,1001.99
2022-09-16T09:40:39.654Z,1002.01
2022-09-16T09:41:38.796Z,1001.96
2022-09-16T09:42:39.716Z,1001.97
2022-09-16T09:44:38.784Z,1001.95
2022-09-16T09:45:38.843Z,1001.81
2022-09-16T09:46:38.755Z,1001.85
2022-09-16T09:47:38.810Z,1001.85
2022-09-16T09:48:39.711Z,1001.84
2022-09-16T09:49:39.556Z,1002.02
2022-09-16T09:50:39.466Z,1001.83
2022-09-16T09:51:38.675Z,1001.86
2022-09-16T09:52:38.717Z,1002.06
2022-09-16T09:53:39.426Z,1001.99
2022-09-16T09:54:40.087Z,1001.96
2022-09-16T09:55:39.489Z,1002.01
2022-09-16T09:56:38.608Z,1001.95
2022-09-16T09:57:39.308Z,1002.02
2022-09-16T09:58:38.580Z,1001.91
2022-09-16T09:59:38.558Z,1001.85
2022-09-16T10:00:38.555Z,1001.92
2022-09-16T10:01:38.593Z,1001.84
2022-09-16T10:02:39.334Z,1001.78
2022-09-16T10:03:38.510Z,1001.76
2022-09-16T10:04:39.398Z,1001.80
2022-09-16T10:05:38.460Z,1001.77
2022-09-16T10:06:38.472Z,1001.87
2022-09-16T10:07:38.421Z,1001.77
2022-09-16T10:08:38.435Z,1001.81
2022-09-16T10:09:38.440Z,1001.87
2022-09-16T10:10:39.332Z,1001.81
2022-09-16T10:11:39.239Z,1001.83
2022-09-16T10:12:38.363Z,1001.73
2022-09-16T10:13:38.344Z,1001.73
2022-09-16T10:14:39.223Z,1001.78
2022-09-16T10:15:38.329Z,1001.78
2022-09-16T10:16:39.356Z,1001.78
2022-09-16T10:17:39.175Z,1001.62
2022-09-16T10:18:39.075Z,1001.71
2022-09-16T10:19:38.457Z,1001.72
2022-09-16T10:20:39.146Z,1001.71
2022-09-16T10:21:38.258Z,1001.76
2022-09-16T10:22:38.255Z,1001.76
2022-09-16T10:23:38.207Z,1001.84
2022-09-16T10:24:39.017Z,1001.82
2022-09-16T10:25:38.917Z,1001.73
2022-09-16T10:26:39.620Z,1001.65
2022-09-16T10:27:38.159Z,1001.76
2022-09-16T10:28:38.886Z,1001.77
2022-09-16T10:29:38.437Z,1001.80
2022-09-16T10:30:38.948Z,1001.74
2022-09-16T10:31:38.143Z,1001.85
2022-09-16T10:32:39.020Z,1001.75
2022-09-16T10:33:38.919Z,1001.76
2022-09-16T10:34:38.823Z,1001.80
2022-09-16T10:35:38.051Z,1001.67
2022-09-16T10:36:38.894Z,1001.76
2022-09-16T10:37:38.011Z,1001.71
2022-09-16T10:38:38.017Z,1001.80
2022-09-16T10:39:38.851Z,1001.85
2022-09-16T10:40:38.080Z,1001.80
2022-09-16T10:41:37.954Z,1001.72
2022-09-16T10:42:38.917Z,1001.75
2022-09-16T10:43:37.913Z,1001.83
2022-09-16T10:44:37.914Z,1001.82
2022-09-16T10:45:37.909Z,1001.73
2022-09-16T10:46:37.945Z,1001.74
2022-09-16T10:47:38.632Z,1001.70
2022-09-16T10:48:37.856Z,1001.72
2022-09-16T10:49:38.662Z,1001.71
2022-09-16T10:50:38.829Z,1001.68
2022-09-16T10:51:38.724Z,1001.59
2022-09-16T10:52:38.625Z,1001.74
2022-09-16T10:53:40.857Z,1001.69
2022-09-16T10:54:46.966Z,1001.77
2022-09-16T10:55:38.628Z,1001.75
2022-09-16T10:56:37.746Z,1001.79
2022-09-16T10:57:38.660Z,1001.66
2022-09-16T10:58:38.564Z,1001.67
2022-09-16T10:59:37.962Z,1001.71
2022-09-16T11:00:41.191Z,1001.56
2022-09-16T11:01:41.525Z,1001.65
2022-09-16T11:02:37.651Z,1001.60
2022-09-16T11:03:37.666Z,1001.63
2022-09-16T11:04:38.424Z,1001.59
2022-09-16T11:05:38.400Z,1001.53
2022-09-16T11:06:37.593Z,1001.55
2022-09-16T11:07:38.445Z,1001.52
2022-09-16T11:08:37.572Z,1001.54
2022-09-16T11:09:37.570Z,1001.44
2022-09-16T11:10:37.683Z,1001.48
2022-09-16T11:11:37.662Z,1001.53
2022-09-16T11:12:37.549Z,1001.47
2022-09-16T11:13:38.423Z,1001.43
2022-09-16T11:14:37.493Z,1001.38
2022-09-16T11:15:38.475Z,1001.48
2022-09-16T11:16:37.612Z,1001.44
2022-09-16T11:17:38.282Z,1001.43
2022-09-16T11:18:38.183Z,1001.46
2022-09-16T11:19:38.375Z,1001.47
2022-09-16T11:20:37.407Z,1001.56
2022-09-16T11:21:37.386Z,1001.43
2022-09-16T11:22:38.308Z,1001.45
2022-09-16T11:23:38.217Z,1001.52
2022-09-16T11:24:38.118Z,1001.43
2022-09-16T11:25:37.330Z,1001.65
2022-09-16T11:26:37.300Z,1001.57
2022-09-16T11:27:37.369Z,1001.61
2022-09-16T11:28:37.350Z,1001.66
2022-09-16T11:29:37.281Z,1001.56
2022-09-16T11:30:37.562Z,1001.59
2022-09-16T11:31:37.597Z,1001.48
2022-09-16T11:32:37.405Z,1001.39
2022-09-16T11:33:37.210Z,1001.46
2022-09-16T11:34:38.220Z,1001.57
2022-09-16T11:35:37.192Z,1001.55
2022-09-16T11:36:37.182Z,1001.45
2022-09-16T11:37:38.145Z,1001.57
2022-09-16T11:38:37.583Z,1001.69
2022-09-16T11:39:37.307Z,1001.52
2022-09-16T11:40:38.558Z,1001.52
2022-09-16T11:41:37.325Z,1001.51
2022-09-16T11:42:37.284Z,1001.45
2022-09-16T11:43:37.075Z,1001.44
2022-09-16T11:44:38.005Z,1001.48
2022-09-16T11:45:37.888Z,1001.38
2022-09-16T11:46:37.105Z,1001.41
2022-09-16T11:47:40.508Z,1001.22
2022-09-16T11:48:37.869Z,1001.35
2022-09-16T11:49:37.768Z,1001.44
2022-09-16T11:50:37.048Z,1001.30
2022-09-16T11:51:37.299Z,1001.27
2022-09-16T11:52:37.730Z,1001.28
2022-09-16T11:53:40.310Z,1001.28
2022-09-16T11:54:37.926Z,1001.20
2022-09-16T11:55:37.198Z,1001.27
2022-09-16T11:56:37.860Z,1001.17
2022-09-16T11:57:37.303Z,1001.19
2022-09-16T11:58:37.674Z,1001.14
2022-09-16T11:59:37.829Z,1001.11
2022-09-16T12:00:37.731Z,1001.18
2022-09-16T12:01:37.681Z,1001.16
2022-09-16T12:02:36.931Z,1001.17
2022-09-16T12:03:36.811Z,1001.17
2022-09-16T12:04:38.397Z,1001.21
2022-09-16T12:05:37.763Z,1001.30
2022-09-16T12:06:37.663Z,1001.26
2022-09-16T12:07:36.893Z,1001.41
2022-09-16T12:08:36.884Z,1001.32
2022-09-16T12:09:37.706Z,1001.28
2022-09-16T12:10:36.756Z,1001.25
2022-09-16T12:11:37.268Z,1001.30
2022-09-16T12:12:38.082Z,1001.37
2022-09-16T12:13:37.317Z,1001.40
2022-09-16T12:14:36.707Z,1001.37
2022-09-16T12:15:37.500Z,1001.29
2022-09-16T12:16:36.658Z,1001.33
2022-09-16T12:17:36.706Z,1001.28
2022-09-16T12:18:36.819Z,1001.22
2022-09-16T12:19:36.727Z,1001.19
2022-09-16T12:20:37.354Z,1001.23
2022-09-16T12:21:36.583Z,1001.15
2022-09-16T12:22:36.608Z,1001.26
2022-09-16T12:23:36.842Z,1001.13
2022-09-16T12:24:36.559Z,1001.18
2022-09-16T12:25:36.523Z,1001.08
2022-09-16T12:26:36.560Z,1001.16
2022-09-16T12:27:36.603Z,1001.12
2022-09-16T12:28:37.056Z,1001.14
2022-09-16T12:29:36.542Z,1001.15
2022-09-16T12:30:36.625Z,1001.06
2022-09-16T12:31:36.615Z,1001.13
2022-09-16T12:32:36.594Z,1001.15
2022-09-16T12:33:36.532Z,1001.19
2022-09-16T12:34:37.333Z,1001.13
2022-09-16T12:35:36.535Z,1001.15
2022-09-16T12:36:36.405Z,1001.12
2022-09-16T12:37:36.410Z,1001.07
2022-09-16T12:38:36.372Z,1001.01
2022-09-16T12:39:36.740Z,1001.03
2022-09-16T12:40:38.070Z,1000.98
2022-09-16T12:41:37.222Z,1001.01
2022-09-16T12:42:36.417Z,1001.01
2022-09-16T12:43:36.271Z,1000.87
2022-09-16T12:44:36.519Z,1001.08
2022-09-16T12:45:36.251Z,1000.91
2022-09-16T12:46:36.378Z,1000.87
2022-09-16T12:47:36.219Z,1000.90
2022-09-16T12:48:37.002Z,1000.88
2022-09-16T12:49:36.316Z,1000.88
2022-09-16T12:50:37.140Z,1000.88
2022-09-16T12:51:36.382Z,1000.81
2022-09-16T12:52:36.282Z,1000.77
2022-09-16T12:53:36.345Z,1000.86
2022-09-16T12:54:45.965Z,1000.80
2022-09-16T12:55:37.143Z,1000.84
2022-09-16T12:56:36.154Z,1000.74
2022-09-16T12:57:36.523Z,1000.76
2022-09-16T12:58:36.036Z,1000.74
2022-09-16T12:59:36.253Z,1000.67
2022-09-16T13:00:36.138Z,1000.78
2022-09-16T13:01:36.311Z,1000.72
2022-09-16T13:02:36.198Z,1000.75
2022-09-16T13:04:36.336Z,1000.60
2022-09-16T13:05:36.948Z,1000.67
2022-09-16T13:06:36.063Z,1000.58
2022-09-16T13:07:36.088Z,1000.65
2022-09-16T13:08:36.227Z,1000.68
2022-09-16T13:09:36.011Z,1000.49
2022-09-16T13:12:24.240Z,1000.52
2022-09-16T13:12:43.063Z,1000.50
2022-09-16T13:13:37.643Z,1000.56
2022-09-16T13:14:36.773Z,1000.48
2022-09-16T13:15:36.710Z,1000.67
2022-09-16T13:16:36.167Z,1000.51
2022-09-16T13:17:35.973Z,1000.70
2022-09-16T13:18:35.854Z,1000.44
2022-09-16T13:19:35.851Z,1000.62
2022-09-16T13:20:36.714Z,1000.58
2022-09-16T13:21:35.896Z,1000.67
2022-09-16T13:22:35.788Z,1000.58
2022-09-16T13:23:35.739Z,1000.65
2022-09-16T13:24:35.773Z,1000.50
2022-09-16T13:25:35.878Z,1000.60
2022-09-16T13:26:36.650Z,1000.58
2022-09-16T13:27:36.549Z,1000.52
2022-09-16T13:28:35.926Z,1000.52
2022-09-16T13:29:36.362Z,1000.57
2022-09-16T13:30:36.525Z,1000.57
2022-09-16T13:31:35.671Z,1000.58
2022-09-16T13:32:35.552Z,1000.50
2022-09-16T13:33:35.550Z,1000.50
2022-09-16T13:34:35.542Z,1000.63
2022-09-16T13:35:35.529Z,1000.49
2022-09-16T13:36:35.502Z,1000.49
2022-09-16T13:37:36.368Z,1000.48
2022-09-16T13:38:36.263Z,1000.54
2022-09-16T13:39:35.482Z,1000.47
2022-09-16T13:40:35.509Z,1000.46
2022-09-16T13:41:35.478Z,1000.58
2022-09-16T13:42:35.536Z,1000.52
2022-09-16T13:43:36.294Z,1000.46
2022-09-16T13:44:35.387Z,1000.41
2022-09-16T13:45:35.364Z,1000.36
2022-09-16T13:46:36.334Z,1000.54
2022-09-16T13:47:35.532Z,1000.38
2022-09-16T13:48:36.341Z,1000.46
2022-09-16T13:49:35.339Z,1000.39
2022-09-16T13:50:36.766Z,1000.27
2022-09-16T13:51:36.463Z,1000.43
2022-09-16T13:52:36.198Z,1000.46
2022-09-16T13:53:36.107Z,1000.44
2022-09-16T13:54:47.924Z,1000.41
2022-09-16T13:55:37.197Z,1000.43
2022-09-16T13:56:35.267Z,1000.42
2022-09-16T13:57:35.329Z,1000.39